Time;durP1;ratioP1;P1;durP2;ratioP2;P2;SDS_P1;SDS_P2;PMS_P1;PMS_P2;Temp;Humidity;BMP_temperature;BMP_pressure;BME280_temperature;BME280_humidity;BME280_pressure;Samples;Min_cycle;Max_cycle;Signal;HPM_P1;HPM_P2
2022/08/08 11:25:39;;;;;;;0.00;0.00;;;22.00;87.40;;;;;;5085593;27;1455340;-75
2022/08/08 11:28:08;;;;;;;0.00;0.00;;;21.30;86.80;;;;;;5108319;28;20080;-74
2022/08/08 11:30:35;;;;;;;0.00;0.00;;;21.30;87.80;;;;;;5109283;28;20087;-78
2022/08/08 11:33:04;;;;;;;0.00;0.00;;;21.30;87.90;;;;;;5107511;28;20023;-76
2022/08/08 11:35:30;;;;;;;0.00;0.00;;;21.20;86.90;;;;;;5094202;28;20036;-75
2022/08/08 11:37:56;;;;;;;0.00;0.00;;;21.10;87.30;;;;;;5109349;28;20030;-75
2022/08/08 11:40:22;;;;;;;0.00;0.00;;;21.00;86.60;;;;;;5113926;28;20048;-75
2022/08/08 11:42:49;;;;;;;0.00;0.00;;;20.90;86.90;;;;;;5088554;28;20073;-79
2022/08/08 11:45:15;;;;;;;0.00;0.00;;;20.90;87.20;;;;;;5087948;28;20055;-75
2022/08/08 11:47:41;;;;;;;0.00;0.00;;;20.90;87.30;;;;;;5105324;28;20214;-76
2022/08/08 11:50:11;;;;;;;0.00;0.00;;;20.90;87.70;;;;;;5110530;28;20286;-77
2022/08/08 11:52:38;;;;;;;0.00;0.00;;;20.90;88.00;;;;;;5111577;28;20047;-77
2022/08/08 11:55:17;;;;;;;0.00;0.00;;;20.90;88.30;;;;;;5108378;28;20028;-78
2022/08/08 11:57:44;;;;;;;0.00;0.00;;;21.00;88.00;;;;;;5108290;28;20028;-78
2022/08/08 12:00:16;;;;;;;0.00;0.00;;;21.00;87.90;;;;;;5108517;28;20286;-75
2022/08/08 12:02:48;;;;;;;0.00;0.00;;;21.10;89.50;;;;;;5106813;28;20016;-79
2022/08/08 12:05:14;;;;;;;0.00;0.00;;;21.10;90.00;;;;;;5106903;28;21062;-76
2022/08/08 12:07:51;;;;;;;0.00;0.00;;;21.10;88.90;;;;;;5115671;28;20156;-76
2022/08/08 12:10:20;;;;;;;0.00;0.00;;;21.20;89.90;;;;;;5116263;28;20032;-77
2022/08/08 12:12:48;;;;;;;0.00;0.00;;;21.10;90.40;;;;;;5098767;28;20142;-77
2022/08/08 12:15:29;;;;;;;0.00;0.00;;;21.20;90.00;;;;;;5118741;28;20035;-78
2022/08/08 12:17:55;;;;;;;0.00;0.00;;;21.10;89.60;;;;;;5113718;28;20112;-77
2022/08/08 12:20:21;;;;;;;0.00;0.00;;;21.20;89.90;;;;;;5116495;28;20032;-75
2022/08/08 12:22:49;;;;;;;0.00;0.00;;;21.20;90.40;;;;;;5108848;28;20023;-74
2022/08/08 12:25:24;;;;;;;;;;;21.30;90.30;;;;;;5111585;28;20048;-75
2022/08/08 12:27:51;;;;;;;0.00;0.00;;;21.10;90.20;;;;;;5109620;28;20201;-77
2022/08/08 12:30:29;;;;;;;0.00;0.00;;;21.10;90.90;;;;;;5112551;28;20880;-78
2022/08/08 12:32:58;;;;;;;0.00;0.00;;;21.00;90.30;;;;;;5117390;28;20019;-77
2022/08/08 12:35:26;;;;;;;0.00;0.00;;;21.10;90.80;;;;;;5091939;28;20043;-74
2022/08/08 12:38:03;;;;;;;0.00;0.00;;;21.00;90.70;;;;;;5083815;28;20030;-76
2022/08/08 12:40:40;;;;;;;0.00;0.00;;;21.00;90.60;;;;;;5096587;28;20044;-76
2022/08/08 12:43:06;;;;;;;0.00;0.00;;;21.10;90.50;;;;;;5102097;28;20305;-76
2022/08/08 12:45:44;;;;;;;0.00;0.00;;;21.10;90.20;;;;;;5090774;28;20110;-76
2022/08/08 12:48:24;;;;;;;0.00;0.00;;;21.20;90.10;;;;;;5101723;28;20042;-76
2022/08/08 12:50:55;;;;;;;0.00;0.00;;;21.20;90.20;;;;;;5095865;28;20036;-78
2022/08/08 12:53:24;;;;;;;0.00;0.00;;;21.20;90.50;;;;;;5100626;28;20024;-76
2022/08/08 12:55:54;;;;;;;0.00;0.00;;;21.10;90.80;;;;;;5076471;28;20306;-74
2022/08/08 12:58:19;;;;;;;0.00;0.00;;;20.90;91.00;;;;;;5093828;28;20996;-76
2022/08/08 13:00:45;;;;;;;0.00;0.00;;;20.90;90.50;;;;;;5095863;28;20035;-75
2022/08/08 13:03:22;;;;;;;0.00;0.00;;;21.00;91.40;;;;;;5096952;28;20020;-76
2022/08/08 13:05:48;;;;;;;0.00;0.00;;;21.00;90.60;;;;;;5102962;28;20042;-76
2022/08/08 13:08:15;;;;;;;0.00;0.00;;;21.20;90.00;;;;;;5105138;28;20036;-75
2022/08/08 13:10:53;;;;;;;0.00;0.00;;;21.20;90.20;;;;;;5069860;22;20049;-76
2022/08/08 13:13:27;;;;;;;0.00;0.00;;;21.20;90.10;;;;;;5020025;28;20104;-75
2022/08/08 13:15:53;;;;;;;0.00;0.00;;;21.30;90.00;;;;;;5016992;28;20025;-76
2022/08/08 13:18:21;;;;;;;0.00;0.00;;;21.40;89.20;;;;;;5016419;28;20029;-75
2022/08/08 13:20:47;;;;;;;0.00;0.00;;;21.50;89.20;;;;;;5020740;28;20029;-77
2022/08/08 13:23:18;;;;;;;0.00;0.00;;;21.60;88.80;;;;;;5023135;28;20037;-76
2022/08/08 13:25:45;;;;;;;0.00;0.00;;;21.50;89.00;;;;;;5018985;28;20112;-77
2022/08/08 13:28:10;;;;;;;0.00;0.00;;;21.50;89.70;;;;;;5014410;28;20628;-76
2022/08/08 13:30:36;;;;;;;0.00;0.00;;;21.30;89.90;;;;;;5016037;28;20313;-77
2022/08/08 13:33:03;;;;;;;0.00;0.00;;;21.40;90.20;;;;;;5018282;28;20057;-77
2022/08/08 13:35:28;;;;;;;0.00;0.00;;;21.40;90.30;;;;;;5019800;28;20096;-77
2022/08/08 13:38:01;;;;;;;0.00;0.00;;;21.20;90.60;;;;;;5015061;28;20624;-77
2022/08/08 13:40:26;;;;;;;0.00;0.00;;;20.90;91.40;;;;;;5013589;28;20037;-76
2022/08/08 13:42:53;;;;;;;0.00;0.00;;;20.60;91.70;;;;;;5020165;28;20017;-77
2022/08/08 13:45:19;;;;;;;0.00;0.00;;;20.40;92.20;;;;;;5019223;28;20048;-77
2022/08/08 13:47:58;;;;;;;0.00;0.00;;;20.60;92.30;;;;;;5015592;28;20022;-76
2022/08/08 13:50:23;;;;;;;0.00;0.00;;;20.80;91.80;;;;;;5023157;28;20035;-77
2022/08/08 13:52:49;;;;;;;0.00;0.00;;;20.90;91.50;;;;;;5009103;28;20624;-77
2022/08/08 13:55:18;;;;;;;0.00;0.00;;;21.00;91.10;;;;;;5013614;28;20795;-77
2022/08/08 13:57:44;;;;;;;0.00;0.00;;;21.10;90.90;;;;;;5013124;28;20021;-75
2022/08/08 14:00:13;;;;;;;0.00;0.00;;;21.20;90.90;;;;;;5019460;28;20034;-77
2022/08/08 14:02:39;;;;;;;0.00;0.00;;;21.10;90.80;;;;;;5026737;28;20029;-76
2022/08/08 14:05:09;;;;;;;0.00;0.00;;;21.30;90.90;;;;;;5017645;28;20029;-76
2022/08/08 14:07:42;;;;;;;0.00;0.00;;;21.30;91.00;;;;;;5016441;28;20033;-77
2022/08/08 14:10:18;;;;;;;0.00;0.00;;;21.00;90.90;;;;;;5011774;28;20141;-76
2022/08/08 14:12:45;;;;;;;0.00;0.00;;;21.00;91.40;;;;;;5021071;28;20029;-76
2022/08/08 14:15:24;;;;;;;0.00;0.00;;;20.80;91.70;;;;;;5009726;28;20036;-76
2022/08/08 14:17:58;;;;;;;0.00;0.00;;;20.90;91.60;;;;;;5013380;28;20077;-76
2022/08/08 14:20:37;;;;;;;0.00;0.00;;;20.80;91.90;;;;;;5019081;28;20091;-76
2022/08/08 14:23:11;;;;;;;0.00;0.00;;;21.00;91.70;;;;;;5022131;28;20025;-78
2022/08/08 14:25:47;;;;;;;0.00;0.00;;;21.00;91.60;;;;;;5019978;28;20029;-76
2022/08/08 14:28:16;;;;;;;0.00;0.00;;;21.10;91.40;;;;;;5015637;28;20880;-75
2022/08/08 14:30:42;;;;;;;0.00;0.00;;;21.20;91.30;;;;;;5013534;28;20048;-75
2022/08/08 14:33:23;;;;;;;0.00;0.00;;;21.20;91.10;;;;;;5015143;28;20014;-75
2022/08/08 14:35:59;;;;;;;0.00;0.00;;;21.30;91.10;;;;;;5016211;28;20064;-75
2022/08/08 14:38:30;;;;;;;0.00;0.00;;;21.40;91.00;;;;;;5016733;28;20063;-76
2022/08/08 14:40:56;;;;;;;0.00;0.00;;;21.20;90.90;;;;;;5014833;28;20113;-75
2022/08/08 14:43:26;;;;;;;0.00;0.00;;;21.20;91.20;;;;;;5017265;28;20252;-78
2022/08/08 14:46:04;;;;;;;0.00;0.00;;;21.20;91.00;;;;;;5012255;28;20539;-77
2022/08/08 14:48:46;;;;;;;0.00;0.00;;;21.00;90.90;;;;;;5015486;28;20330;-77
2022/08/08 14:51:13;;;;;;;0.00;0.00;;;21.00;91.10;;;;;;5016678;28;20974;-77
2022/08/08 14:53:40;;;;;;;0.00;0.00;;;21.10;90.90;;;;;;5016885;28;20040;-76
2022/08/08 14:56:06;;;;;;;0.00;0.00;;;21.20;90.70;;;;;;5012150;28;20033;-78
2022/08/08 14:58:32;;;;;;;0.00;0.00;;;21.20;90.50;;;;;;5013442;28;20033;-78
2022/08/08 15:00:58;;;;;;;0.00;0.00;;;21.30;90.30;;;;;;5017569;28;20025;-77
2022/08/08 15:03:24;;;;;;;0.00;0.00;;;21.30;90.30;;;;;;5019256;28;20267;-77
2022/08/08 15:05:49;;;;;;;0.00;0.00;;;21.30;90.20;;;;;;5016583;28;20296;-77
2022/08/08 15:08:18;;;;;;;0.00;0.00;;;21.40;90.10;;;;;;5015747;28;20025;-77
2022/08/08 15:10:44;;;;;;;0.00;0.00;;;21.40;90.10;;;;;;5018296;28;20057;-76
2022/08/08 15:13:13;;;;;;;0.00;0.00;;;21.50;90.10;;;;;;5015697;28;20033;-77
2022/08/08 15:15:39;;;;;;;0.00;0.00;;;21.50;90.20;;;;;;5021803;28;20033;-77
2022/08/08 15:18:06;;;;;;;0.00;0.00;;;21.60;90.00;;;;;;5011760;28;20250;-76
2022/08/08 15:20:32;;;;;;;0.00;0.00;;;21.60;89.90;;;;;;5017089;28;20025;-76
2022/08/08 15:22:58;;;;;;;0.00;0.00;;;21.60;89.30;;;;;;5017179;28;20056;-77
2022/08/08 15:25:24;;;;;;;0.00;0.00;;;21.60;88.10;;;;;;5008541;28;20128;-76
2022/08/08 15:27:50;;;;;;;0.00;0.00;;;21.70;87.90;;;;;;5010532;28;20070;-76
2022/08/08 15:30:16;;;;;;;0.00;0.00;;;21.60;87.00;;;;;;5017161;28;20402;-77
2022/08/08 15:32:42;;;;;;;0.00;0.00;;;21.70;86.60;;;;;;5013802;28;20045;-76
2022/08/08 15:35:08;;;;;;;0.00;0.00;;;21.70;86.10;;;;;;5024390;28;20092;-76
2022/08/08 15:37:34;;;;;;;0.00;0.00;;;21.70;85.60;;;;;;5016185;28;20033;-75
2022/08/08 15:40:00;;;;;;;0.00;0.00;;;21.70;85.40;;;;;;5014690;28;20022;-77
2022/08/08 15:42:25;;;;;;;0.00;0.00;;;21.80;85.30;;;;;;5017056;28;20242;-77
2022/08/08 15:44:51;;;;;;;0.00;0.00;;;21.70;84.90;;;;;;5015095;28;20442;-77
2022/08/08 15:47:17;;;;;;;0.00;0.00;;;21.80;84.60;;;;;;5013609;28;20590;-77
2022/08/08 15:49:45;;;;;;;0.00;0.00;;;21.90;84.80;;;;;;5019836;28;20029;-77
2022/08/08 15:52:11;;;;;;;0.00;0.00;;;21.90;84.10;;;;;;5025867;28;20025;-77
2022/08/08 15:54:38;;;;;;;0.00;0.00;;;22.00;84.00;;;;;;5015300;28;20029;-77
2022/08/08 15:57:04;;;;;;;0.00;0.00;;;22.00;82.90;;;;;;5012707;28;20060;-77
2022/08/08 15:59:30;;;;;;;0.00;0.00;;;22.10;82.70;;;;;;5011294;28;20041;-77
2022/08/08 16:01:55;;;;;;;0.00;0.00;;;22.10;83.00;;;;;;5013638;28;20025;-77
2022/08/08 16:04:21;;;;;;;0.00;0.00;;;22.20;83.70;;;;;;5017184;28;20034;-77
2022/08/08 16:06:49;;;;;;;0.00;0.00;;;22.20;82.00;;;;;;5014200;28;20064;-76
2022/08/08 16:09:15;;;;;;;;;;;22.30;82.00;;;;;;5017036;28;20064;-76
2022/08/08 16:11:41;;;;;;;0.00;0.00;;;22.30;81.90;;;;;;5024595;28;19916;-76
2022/08/08 16:14:07;;;;;;;0.00;0.00;;;22.30;81.60;;;;;;5026718;28;20053;-76
2022/08/08 16:16:33;;;;;;;0.00;0.00;;;22.40;81.60;;;;;;5010065;28;20026;-76
2022/08/08 16:18:59;;;;;;;0.00;0.00;;;22.40;81.30;;;;;;5019126;28;20072;-78
2022/08/08 16:21:26;;;;;;;0.00;0.00;;;22.40;81.80;;;;;;5017587;28;20575;-76
2022/08/08 16:23:52;;;;;;;0.00;0.00;;;22.40;81.30;;;;;;5019711;28;20037;-77
2022/08/08 16:26:18;;;;;;;0.00;0.00;;;22.40;80.70;;;;;;5028691;28;20472;-78
2022/08/08 16:28:43;;;;;;;0.00;0.00;;;22.40;80.40;;;;;;5018810;28;20464;-76
2022/08/08 16:31:09;;;;;;;0.00;0.00;;;22.40;80.60;;;;;;5020936;28;20029;-78
2022/08/08 16:33:35;;;;;;;0.00;0.00;;;22.40;80.30;;;;;;5025607;28;20025;-76
2022/08/08 16:36:01;;;;;;;0.00;0.00;;;22.40;79.30;;;;;;5025866;28;20028;-78
2022/08/08 16:38:26;;;;;;;0.00;0.00;;;22.40;78.70;;;;;;5035925;28;20021;-79
2022/08/08 16:40:52;;;;;;;0.00;0.00;;;22.40;78.40;;;;;;5042877;28;20082;-78
2022/08/08 16:43:18;;;;;;;0.00;0.00;;;22.40;78.40;;;;;;5039384;28;20028;-77
2022/08/08 16:45:44;;;;;;;0.00;0.00;;;22.40;78.20;;;;;;5043233;28;20312;-78
2022/08/08 16:48:09;;;;;;;0.00;0.00;;;22.40;77.60;;;;;;5044823;28;20024;-78
2022/08/08 16:50:35;;;;;;;0.00;0.00;;;22.50;78.20;;;;;;5043626;28;20044;-77
2022/08/08 16:53:01;;;;;;;0.00;0.00;;;22.50;77.30;;;;;;5041310;28;20196;-78
2022/08/08 16:55:26;;;;;;;0.00;0.00;;;22.50;77.30;;;;;;5044708;28;20029;-77
2022/08/08 16:57:52;;;;;;;0.00;0.00;;;22.50;77.10;;;;;;5044101;28;20017;-79
2022/08/08 17:00:17;;;;;;;0.00;0.00;;;22.50;77.10;;;;;;5043504;28;20323;-80
2022/08/08 17:02:43;;;;;;;0.00;0.00;;;22.50;77.20;;;;;;5040351;28;20063;-80
2022/08/08 17:05:09;;;;;;;0.00;0.00;;;22.50;76.90;;;;;;5026716;28;20052;-82
2022/08/08 17:07:35;;;;;;;0.00;0.00;;;22.50;76.30;;;;;;5023677;28;20050;-81
2022/08/08 17:10:01;;;;;;;0.00;0.00;;;22.50;75.70;;;;;;5024332;28;20050;-81
2022/08/08 17:12:26;;;;;;;0.00;0.00;;;22.50;76.20;;;;;;5023881;28;20362;-81
2022/08/08 17:14:52;;;;;;;0.00;0.00;;;22.40;76.20;;;;;;5023730;28;20097;-80
2022/08/08 17:17:18;;;;;;;0.00;0.00;;;22.40;76.50;;;;;;5023433;28;20022;-79
2022/08/08 17:19:45;;;;;;;0.00;0.00;;;22.40;76.70;;;;;;5024718;28;20178;-80
2022/08/08 17:22:11;;;;;;;0.00;0.00;;;22.40;76.80;;;;;;4992384;28;20046;-78
2022/08/08 17:24:37;;;;;;;0.00;0.00;;;22.40;77.10;;;;;;4963570;28;20099;-75
2022/08/08 17:27:03;;;;;;;0.00;0.00;;;22.30;77.20;;;;;;4958820;28;20035;-79
2022/08/08 17:29:30;;;;;;;0.00;0.00;;;22.40;77.30;;;;;;4971319;28;20241;-77
2022/08/08 17:31:56;;;;;;;0.00;0.00;;;22.40;77.50;;;;;;4962332;28;20042;-78
2022/08/08 17:34:22;;;;;;;0.00;0.00;;;22.40;77.40;;;;;;4959242;28;20183;-79
2022/08/08 17:36:48;;;;;;;0.00;0.00;;;22.40;77.60;;;;;;4959665;28;20091;-76
2022/08/08 17:39:14;;;;;;;0.00;0.00;;;22.40;77.20;;;;;;4999826;28;20098;-77
2022/08/08 17:41:40;;;;;;;0.00;0.00;;;22.30;77.20;;;;;;4997176;28;20262;-74
2022/08/08 17:44:06;;;;;;;0.00;0.00;;;22.30;77.20;;;;;;4957908;28;20154;-78
2022/08/08 17:46:39;;;;;;;0.00;0.00;;;22.30;77.50;;;;;;4960910;28;20039;-77
2022/08/08 17:49:07;;;;;;;0.00;0.00;;;22.20;77.60;;;;;;4960737;28;20090;-79
2022/08/08 17:51:34;;;;;;;0.00;0.00;;;22.20;77.80;;;;;;4958450;28;20030;-80
2022/08/08 17:53:59;;;;;;;0.00;0.00;;;22.20;77.70;;;;;;4957639;28;20027;-80
2022/08/08 17:56:25;;;;;;;0.00;0.00;;;22.20;77.70;;;;;;5000621;28;20138;-82
2022/08/08 17:58:51;;;;;;;0.00;0.00;;;22.10;77.70;;;;;;4959085;28;20026;-83
2022/08/08 18:01:17;;;;;;;0.00;0.00;;;22.10;77.60;;;;;;4958019;28;20494;-83
2022/08/08 18:03:43;;;;;;;0.00;0.00;;;22.10;77.30;;;;;;4957261;28;20031;-80
2022/08/08 18:06:09;;;;;;;0.00;0.00;;;22.10;76.90;;;;;;4964698;28;20217;-78
2022/08/08 18:08:35;;;;;;;0.00;0.00;;;22.00;77.00;;;;;;4965654;28;20106;-81
2022/08/08 18:11:06;;;;;;;0.00;0.00;;;22.00;76.40;;;;;;4983218;28;20076;-80
2022/08/08 18:13:32;;;;;;;0.00;0.00;;;21.90;76.50;;;;;;4978483;28;20137;-83
2022/08/08 18:15:57;;;;;;;0.00;0.00;;;21.90;76.60;;;;;;4985913;28;20323;-77
2022/08/08 18:18:23;;;;;;;0.00;0.00;;;21.90;76.70;;;;;;4961629;28;20050;-81
2022/08/08 18:20:49;;;;;;;0.00;0.00;;;21.90;76.60;;;;;;4979468;28;20120;-79
2022/08/08 18:23:14;;;;;;;0.00;0.00;;;21.80;76.50;;;;;;4975301;28;20225;-81
2022/08/08 18:25:40;;;;;;;0.00;0.00;;;21.80;76.80;;;;;;4984213;28;20101;-76
2022/08/08 18:28:05;;;;;;;0.00;0.00;;;21.80;76.80;;;;;;4974661;28;20033;-77
2022/08/08 18:30:33;;;;;;;0.00;0.00;;;21.70;76.90;;;;;;4978032;28;20026;-77
2022/08/08 18:32:59;;;;;;;0.00;0.00;;;21.70;77.10;;;;;;4979040;28;20232;-77
2022/08/08 18:35:25;;;;;;;0.00;0.00;;;21.60;77.00;;;;;;4979633;28;20121;-77
2022/08/08 18:37:50;;;;;;;0.00;0.00;;;21.70;77.20;;;;;;4973052;28;20254;-77
2022/08/08 18:40:16;;;;;;;0.00;0.00;;;21.60;77.10;;;;;;4974828;28;20268;-78
2022/08/08 18:42:43;;;;;;;0.00;0.00;;;21.60;76.90;;;;;;4977673;28;20046;-77
2022/08/08 18:45:10;;;;;;;0.00;0.00;;;21.60;76.90;;;;;;4971140;28;20035;-77
2022/08/08 18:47:35;;;;;;;0.00;0.00;;;21.50;76.90;;;;;;4981980;28;20487;-78
2022/08/08 18:50:01;;;;;;;0.00;0.00;;;21.50;76.80;;;;;;4977367;28;20416;-75
2022/08/08 18:52:29;;;;;;;0.00;0.00;;;21.50;76.70;;;;;;4979120;28;20027;-75
2022/08/08 18:54:54;;;;;;;0.00;0.00;;;21.40;77.00;;;;;;4960800;28;20035;-77
2022/08/08 18:57:20;;;;;;;0.00;0.00;;;21.30;77.00;;;;;;4960215;28;20111;-77
2022/08/08 18:59:46;;;;;;;0.00;0.00;;;21.30;77.20;;;;;;4961592;28;20029;-77
2022/08/08 19:02:13;;;;;;;0.00;0.00;;;21.30;77.00;;;;;;4972655;28;20037;-77
2022/08/08 19:04:38;;;;;;;0.00;0.00;;;21.20;76.90;;;;;;4983743;28;20102;-77
2022/08/08 19:07:04;;;;;;;0.00;0.00;;;21.20;76.50;;;;;;4983600;28;20030;-81
2022/08/08 19:09:30;;;;;;;0.00;0.00;;;21.20;76.70;;;;;;4966154;28;20100;-81
2022/08/08 19:11:56;;;;;;;0.00;0.00;;;21.10;76.70;;;;;;4974084;28;20023;-77
2022/08/08 19:14:21;;;;;;;0.00;0.00;;;21.10;77.00;;;;;;4983112;28;20033;-79
2022/08/08 19:16:47;;;;;;;0.00;0.00;;;21.10;77.70;;;;;;4985145;28;20042;-76
2022/08/08 19:19:13;;;;;;;0.00;0.00;;;21.00;76.90;;;;;;4976490;28;20031;-80
2022/08/08 19:21:39;;;;;;;0.00;0.00;;;21.00;77.10;;;;;;4998120;28;20177;-77
2022/08/08 19:24:05;;;;;;;0.00;0.00;;;21.00;76.90;;;;;;4989999;28;20022;-80
2022/08/08 19:26:33;;;;;;;0.00;0.00;;;20.90;76.50;;;;;;4994519;28;20042;-80
2022/08/08 19:28:59;;;;;;;0.00;0.00;;;20.90;77.20;;;;;;4984697;28;20277;-79
2022/08/08 19:31:25;;;;;;;0.00;0.00;;;20.90;77.40;;;;;;4984410;28;20030;-80
2022/08/08 19:33:51;;;;;;;0.00;0.00;;;20.80;77.00;;;;;;4965537;28;20050;-79
2022/08/08 19:36:16;;;;;;;0.00;0.00;;;20.80;77.00;;;;;;4975924;28;20269;-80
2022/08/08 19:38:42;;;;;;;0.00;0.00;;;20.80;77.00;;;;;;4976897;28;20030;-77
2022/08/08 19:41:08;;;;;;;0.00;0.00;;;20.80;76.80;;;;;;4988732;28;20034;-77
2022/08/08 19:43:33;;;;;;;0.00;0.00;;;20.80;76.40;;;;;;4969367;28;20183;-79
2022/08/08 19:45:59;;;;;;;0.00;0.00;;;20.80;76.60;;;;;;4980694;28;20037;-78
2022/08/08 19:48:25;;;;;;;0.00;0.00;;;20.80;76.70;;;;;;4978378;28;20310;-79
2022/08/08 19:50:50;;;;;;;0.00;0.00;;;20.80;76.70;;;;;;4985816;28;20037;-78
2022/08/08 19:53:16;;;;;;;0.00;0.00;;;20.70;76.50;;;;;;4966266;28;20109;-79
2022/08/08 19:55:42;;;;;;;0.00;0.00;;;20.70;77.00;;;;;;4988799;28;20051;-76
2022/08/08 19:58:07;;;;;;;0.00;0.00;;;20.70;76.60;;;;;;4982754;28;20054;-78
2022/08/08 20:00:34;;;;;;;0.00;0.00;;;20.70;76.20;;;;;;4980847;28;20192;-79
2022/08/08 20:03:01;;;;;;;0.00;0.00;;;20.70;76.30;;;;;;4978257;28;20033;-78
2022/08/08 20:05:28;;;;;;;0.00;0.00;;;20.60;76.30;;;;;;4986476;28;20041;-79
2022/08/08 20:07:53;;;;;;;0.00;0.00;;;20.60;76.20;;;;;;5001812;28;20676;-78
2022/08/08 20:10:19;;;;;;;0.00;0.00;;;20.60;76.50;;;;;;4992309;28;20279;-79
2022/08/08 20:12:45;;;;;;;0.00;0.00;;;20.60;76.50;;;;;;4993561;28;20329;-78
2022/08/08 20:15:11;;;;;;;0.00;0.00;;;20.60;76.50;;;;;;4988599;28;20034;-79
2022/08/08 20:17:39;;;;;;;0.00;0.00;;;20.60;76.50;;;;;;4988203;28;20104;-76
2022/08/08 20:20:08;;;;;;;0.00;0.00;;;20.50;76.60;;;;;;4982632;28;20673;-76
2022/08/08 20:22:39;;;;;;;0.00;0.00;;;20.50;76.80;;;;;;4967779;28;20236;-77
2022/08/08 20:25:06;;;;;;;0.00;0.00;;;20.40;77.00;;;;;;4984813;28;20569;-78
2022/08/08 20:27:32;;;;;;;0.00;0.00;;;20.40;76.90;;;;;;4993020;28;20053;-79
2022/08/08 20:29:58;;;;;;;0.00;0.00;;;20.40;76.90;;;;;;4973417;28;20384;-77
2022/08/08 20:32:25;;;;;;;0.00;0.00;;;20.50;76.90;;;;;;4978166;28;20179;-77
2022/08/08 20:34:56;;;;;;;0.00;0.00;;;20.50;77.00;;;;;;4962276;28;20293;-77
2022/08/08 20:37:22;;;;;;;0.00;0.00;;;20.50;76.70;;;;;;4978508;28;20030;-80
2022/08/08 20:39:48;;;;;;;0.00;0.00;;;20.50;76.50;;;;;;4982717;28;20306;-77
2022/08/08 20:42:13;;;;;;;0.00;0.00;;;20.50;76.50;;;;;;4979518;28;20129;-77
2022/08/08 20:44:39;;;;;;;0.00;0.00;;;20.50;76.30;;;;;;4990067;28;20038;-78
2022/08/08 20:47:05;;;;;;;0.00;0.00;;;20.50;76.70;;;;;;4990040;28;20023;-79
2022/08/08 20:49:31;;;;;;;0.00;0.00;;;20.50;76.50;;;;;;4978236;28;20031;-80
2022/08/08 20:51:57;;;;;;;0.00;0.00;;;20.50;76.40;;;;;;4984634;28;20026;-80
2022/08/08 20:54:23;;;;;;;0.00;0.00;;;20.40;76.60;;;;;;4962152;28;20038;-81
2022/08/08 20:56:50;;;;;;;0.00;0.00;;;20.40;76.70;;;;;;4992220;28;20019;-80
2022/08/08 20:59:16;;;;;;;0.00;0.00;;;20.40;76.40;;;;;;4981296;28;20049;-81
2022/08/08 21:01:42;;;;;;;0.00;0.00;;;20.40;76.60;;;;;;4989569;28;20023;-80
2022/08/08 21:04:08;;;;;;;0.00;0.00;;;20.40;76.50;;;;;;4979500;28;20692;-77
2022/08/08 21:06:34;;;;;;;0.00;0.00;;;20.40;76.80;;;;;;4992612;28;20022;-77
2022/08/08 21:09:00;;;;;;;0.00;0.00;;;20.30;77.00;;;;;;4977805;28;20022;-77
2022/08/08 21:11:25;;;;;;;0.00;0.00;;;20.30;77.10;;;;;;4983036;28;20694;-78
2022/08/08 21:13:51;;;;;;;0.00;0.00;;;20.30;77.20;;;;;;4988632;28;20096;-76
2022/08/08 21:16:17;;;;;;;0.00;0.00;;;20.30;77.60;;;;;;4981156;28;20545;-78
2022/08/08 21:18:43;;;;;;;0.00;0.00;;;20.30;77.60;;;;;;4978273;28;20029;-79
2022/08/08 21:21:16;;;;;;;0.00;0.00;;;20.30;77.50;;;;;;4990448;28;20093;-78
2022/08/08 21:23:43;;;;;;;0.00;0.00;;;20.30;77.70;;;;;;4983949;28;20038;-78
2022/08/08 21:26:09;;;;;;;0.00;0.00;;;20.30;77.90;;;;;;4975904;28;20038;-78
2022/08/08 21:28:35;;;;;;;0.00;0.00;;;20.30;77.90;;;;;;4983069;28;20109;-79
2022/08/08 21:31:02;;;;;;;0.00;0.00;;;20.30;77.90;;;;;;4978966;28;20309;-79
2022/08/08 21:33:29;;;;;;;0.00;0.00;;;20.30;78.00;;;;;;4981742;28;20030;-78
2022/08/08 21:35:55;;;;;;;0.00;0.00;;;20.30;78.20;;;;;;4981616;28;20049;-79
2022/08/08 21:38:21;;;;;;;0.00;0.00;;;20.30;78.20;;;;;;4990918;28;20030;-79
2022/08/08 21:40:47;;;;;;;0.00;0.00;;;20.30;78.30;;;;;;4983170;28;20033;-77
2022/08/08 21:43:13;;;;;;;0.00;0.00;;;20.30;78.40;;;;;;4975505;28;20033;-77
2022/08/08 21:45:39;;;;;;;0.00;0.00;;;20.30;78.40;;;;;;4967138;28;20034;-80
2022/08/08 21:48:05;;;;;;;0.00;0.00;;;20.30;78.60;;;;;;4983211;28;20040;-79
2022/08/08 21:50:31;;;;;;;0.00;0.00;;;20.30;78.60;;;;;;4977506;28;20033;-77
2022/08/08 21:52:57;;;;;;;0.00;0.00;;;20.30;78.70;;;;;;4981979;28;20030;-80
2022/08/08 21:55:23;;;;;;;0.00;0.00;;;20.30;78.80;;;;;;4976585;28;20026;-76
2022/08/08 21:57:49;;;;;;;0.00;0.00;;;20.30;78.80;;;;;;4962674;28;20034;-77
2022/08/08 22:00:16;;;;;;;0.00;0.00;;;20.30;78.90;;;;;;4980695;28;20089;-80
2022/08/08 22:02:43;;;;;;;0.00;0.00;;;20.30;78.90;;;;;;4977575;28;20058;-79
2022/08/08 22:05:09;;;;;;;0.00;0.00;;;20.30;79.00;;;;;;4974456;28;20033;-78
2022/08/08 22:07:37;;;;;;;0.00;0.00;;;20.30;79.30;;;;;;4979829;28;20069;-80
2022/08/08 22:10:06;;;;;;;0.00;0.00;;;20.30;79.30;;;;;;4970645;28;20090;-77
2022/08/08 22:12:32;;;;;;;0.00;0.00;;;20.20;79.20;;;;;;4960382;28;20035;-80
2022/08/08 22:14:58;;;;;;;0.00;0.00;;;20.20;79.20;;;;;;4962499;28;20035;-77
2022/08/08 22:17:24;;;;;;;0.00;0.00;;;20.30;79.40;;;;;;4971666;28;20030;-78
2022/08/08 22:19:50;;;;;;;0.00;0.00;;;20.20;79.30;;;;;;4963443;28;20332;-77
2022/08/08 22:22:16;;;;;;;0.00;0.00;;;20.20;79.30;;;;;;4962691;28;20078;-79
2022/08/08 22:24:42;;;;;;;0.00;0.00;;;20.20;79.40;;;;;;4957848;28;20326;-79
2022/08/08 22:27:08;;;;;;;0.00;0.00;;;20.20;79.20;;;;;;4957057;28;20024;-76
2022/08/08 22:29:34;;;;;;;0.00;0.00;;;20.20;79.30;;;;;;4963574;28;20074;-81
2022/08/08 22:32:00;;;;;;;0.00;0.00;;;20.20;79.30;;;;;;4970890;28;20022;-80
2022/08/08 22:34:25;;;;;;;0.00;0.00;;;20.20;79.30;;;;;;4964256;28;20034;-80
2022/08/08 22:36:51;;;;;;;0.00;0.00;;;20.20;79.20;;;;;;4956193;28;20305;-77
2022/08/08 22:39:17;;;;;;;0.00;0.00;;;20.20;79.00;;;;;;4971524;28;20505;-78
2022/08/08 22:41:43;;;;;;;0.00;0.00;;;20.20;79.20;;;;;;4956829;28;20054;-79
2022/08/08 22:44:08;;;;;;;0.00;0.00;;;20.20;79.10;;;;;;4956679;28;20034;-79
2022/08/08 22:46:35;;;;;;;0.00;0.00;;;20.20;79.00;;;;;;4970452;28;20088;-79
2022/08/08 22:49:01;;;;;;;0.00;0.00;;;20.20;79.10;;;;;;4956210;28;20023;-78
2022/08/08 22:51:28;;;;;;;0.00;0.00;;;20.20;79.00;;;;;;4973757;28;20045;-80
2022/08/08 22:53:53;;;;;;;0.00;0.00;;;20.20;79.60;;;;;;4971139;28;20034;-79
2022/08/08 22:56:19;;;;;;;0.00;0.00;;;20.20;78.90;;;;;;4959471;28;20214;-79
2022/08/08 22:58:45;;;;;;;0.00;0.00;;;20.10;79.20;;;;;;4959565;28;20054;-80
2022/08/08 23:01:12;;;;;;;0.00;0.00;;;20.10;79.00;;;;;;4967913;28;20040;-78
2022/08/08 23:03:37;;;;;;;0.00;0.00;;;20.10;79.00;;;;;;4961431;28;20435;-77
2022/08/08 23:06:04;;;;;;;0.00;0.00;;;20.60;79.40;;;;;;4973002;28;20026;-79
2022/08/08 23:08:30;;;;;;;0.00;0.00;;;20.00;79.20;;;;;;4974055;28;20027;-80
2022/08/08 23:10:56;;;;;;;0.00;0.00;;;20.00;79.20;;;;;;4970075;28;20301;-80
2022/08/08 23:13:22;;;;;;;0.00;0.00;;;20.00;79.20;;;;;;4957158;28;20031;-79
2022/08/08 23:15:47;;;;;;;0.00;0.00;;;19.90;79.30;;;;;;4958861;28;20077;-76
2022/08/08 23:18:13;;;;;;;0.00;0.00;;;19.90;79.50;;;;;;4966836;28;20019;-80
2022/08/08 23:20:40;;;;;;;0.00;0.00;;;19.90;79.50;;;;;;4970264;28;20274;-79
2022/08/08 23:23:06;;;;;;;0.00;0.00;;;20.00;79.40;;;;;;4964449;28;20081;-80
2022/08/08 23:25:32;;;;;;;0.00;0.00;;;20.00;79.30;;;;;;4970409;28;20050;-78
2022/08/08 23:27:57;;;;;;;0.00;0.00;;;20.00;79.10;;;;;;4969944;28;20032;-77
2022/08/08 23:30:23;;;;;;;0.00;0.00;;;19.90;79.20;;;;;;4964615;28;20046;-79
2022/08/08 23:32:49;;;;;;;0.00;0.00;;;19.90;79.30;;;;;;4966996;28;20094;-78
2022/08/08 23:35:15;;;;;;;0.00;0.00;;;20.00;79.30;;;;;;4959651;28;20049;-79
2022/08/08 23:37:41;;;;;;;0.00;0.00;;;20.00;79.30;;;;;;4961378;28;20031;-78
2022/08/08 23:40:07;;;;;;;0.00;0.00;;;20.00;79.20;;;;;;4959448;28;20042;-77
2022/08/08 23:42:33;;;;;;;0.00;0.00;;;19.90;78.80;;;;;;4966256;28;20247;-79
2022/08/08 23:44:59;;;;;;;0.00;0.00;;;19.90;78.90;;;;;;4958084;28;20024;-79
2022/08/08 23:47:25;;;;;;;0.00;0.00;;;19.90;79.20;;;;;;4962251;28;20031;-79
2022/08/08 23:49:53;;;;;;;0.00;0.00;;;19.90;79.10;;;;;;4969591;28;20034;-76
2022/08/08 23:52:19;;;;;;;0.00;0.00;;;19.90;79.10;;;;;;4955764;28;20091;-79
2022/08/08 23:54:46;;;;;;;0.00;0.00;;;19.90;79.20;;;;;;4957616;28;20046;-80
2022/08/08 23:57:12;;;;;;;0.00;0.00;;;19.90;79.10;;;;;;4969883;28;20050;-81
2022/08/08 23:59:38;;;;;;;0.00;0.00;;;19.90;79.10;;;;;;4972765;28;20745;-76
